Time;durP1;ratioP1;P1;durP2;ratioP2;P2;SDS_P1;SDS_P2;PMS_P1;PMS_P2;Temp;Humidity;BMP_temperature;BMP_pressure;BME280_temperature;BME280_humidity;BME280_pressure;Samples;Min_cycle;Max_cycle;Signal;HPM_P1;HPM_P2
2021/08/24 00:00:33;;;;;;;8.52;3.83;;;;;;;;;;5054834;28;20365;-71
2021/08/24 00:02:59;;;;;;;13.20;4.80;;;;;;;;;;5037590;28;20055;-71
2021/08/24 00:05:28;;;;;;;9.50;4.97;;;;;;;;;;5060926;28;20431;-71
2021/08/24 00:07:56;;;;;;;8.40;4.50;;;;;;;;;;5056192;28;20547;-71
2021/08/24 00:10:24;;;;;;;11.30;4.20;;;;;;;;;;5056812;28;20037;-71
2021/08/24 00:12:51;;;;;;;9.55;4.50;;;;;;;;;;5053325;28;20139;-71
2021/08/24 00:15:17;;;;;;;10.82;5.15;;;;;;;;;;5048637;28;20060;-71
2021/08/24 00:17:44;;;;;;;10.48;5.15;;;;;;;;;;5049160;28;20045;-71
2021/08/24 00:20:10;;;;;;;8.90;5.05;;;;;;;;;;5050270;28;20055;-70
2021/08/24 00:22:38;;;;;;;9.45;4.70;;;;;;;;;;5048608;28;20135;-71
2021/08/24 00:25:06;;;;;;;12.23;5.15;;;;;;;;;;5047004;28;20063;-71
2021/08/24 00:27:32;;;;;;;14.63;5.18;;;;;;;;;;5050525;28;20423;-71
2021/08/24 00:29:58;;;;;;;12.68;6.28;;;;;;;;;;5047274;28;20049;-71
2021/08/24 00:32:24;;;;;;;10.52;4.78;;;;;;;;;;5053069;28;20075;-71
2021/08/24 00:34:51;;;;;;;10.82;4.97;;;;;;;;;;5055935;28;20059;-71
2021/08/24 00:37:19;;;;;;;11.13;4.70;;;;;;;;;;5050044;28;20114;-71
2021/08/24 00:39:46;;;;;;;11.00;4.53;;;;;;;;;;5050119;28;20124;-71
2021/08/24 00:42:12;;;;;;;11.82;4.82;;;;;;;;;;5030498;28;20048;-71
2021/08/24 00:44:39;;;;;;;9.57;5.07;;;;;;;;;;5030938;28;20061;-71
2021/08/24 00:47:05;;;;;;;12.65;5.18;;;;;;;;;;5053673;28;20037;-71
2021/08/24 00:49:31;;;;;;;11.73;4.35;;;;;;;;;;5048398;28;20480;-71
2021/08/24 00:52:01;;;;;;;11.80;4.40;;;;;;;;;;5047147;28;20037;-71
2021/08/24 00:54:28;;;;;;;9.45;4.57;;;;;;;;;;5048570;28;20094;-71
2021/08/24 00:56:57;;;;;;;10.43;5.25;;;;;;;;;;5048528;28;20047;-71
2021/08/24 00:59:24;;;;;;;10.02;5.32;;;;;;;;;;5046895;28;20033;-71
2021/08/24 01:01:51;;;;;;;10.50;5.10;;;;;;;;;;5053169;28;20060;-71
2021/08/24 01:04:18;;;;;;;12.23;5.60;;;;;;;;;;5046661;28;20063;-71
2021/08/24 01:06:46;;;;;;;8.73;5.40;;;;;;;;;;5046531;28;20404;-71
2021/08/24 01:09:21;;;;;;;11.82;5.85;;;;;;;;;;5047819;28;20110;-71
2021/08/24 01:11:57;;;;;;;12.85;5.75;;;;;;;;;;5039047;28;20496;-71
2021/08/24 01:14:30;;;;;;;10.95;6.15;;;;;;;;;;5057358;28;20525;-71
2021/08/24 01:17:04;;;;;;;9.23;6.30;;;;;;;;;;5044788;28;20579;-71
2021/08/24 01:19:30;;;;;;;;;;;;;;;;;;5035697;28;20304;-71
2021/08/24 01:21:56;;;;;;;16.30;6.53;;;;;;;;;;5053742;28;19920;-71
2021/08/24 01:24:29;;;;;;;10.43;5.90;;;;;;;;;;5056482;28;20439;-71
2021/08/24 01:27:04;;;;;;;13.07;6.68;;;;;;;;;;5069552;28;20399;-71
2021/08/24 01:29:38;;;;;;;11.10;6.47;;;;;;;;;;5056742;28;20415;-71
2021/08/24 01:32:14;;;;;;;14.13;6.57;;;;;;;;;;5054830;28;20080;-71
2021/08/24 01:34:51;;;;;;;12.18;6.53;;;;;;;;;;5063819;28;20111;-71
2021/08/24 01:37:23;;;;;;;14.25;6.72;;;;;;;;;;5065978;28;20185;-71
2021/08/24 01:39:52;;;;;;;13.45;6.20;;;;;;;;;;5079253;28;20127;-71
2021/08/24 01:42:21;;;;;;;14.00;6.32;;;;;;;;;;5049830;28;20044;-71
2021/08/24 01:44:54;;;;;;;13.20;6.32;;;;;;;;;;5060011;28;20052;-71
2021/08/24 01:47:20;;;;;;;;;;;;;;;;;;5054433;28;20045;-71
2021/08/24 01:49:50;;;;;;;12.65;6.28;;;;;;;;;;5038608;28;19929;-71
2021/08/24 01:52:18;;;;;;;14.43;6.88;;;;;;;;;;5060385;28;20090;-71
2021/08/24 01:54:50;;;;;;;12.25;6.43;;;;;;;;;;5056816;28;20490;-71
2021/08/24 01:57:20;;;;;;;15.57;6.68;;;;;;;;;;5046223;28;20072;-71
2021/08/24 01:59:51;;;;;;;11.90;5.80;;;;;;;;;;5061654;28;20433;-71
2021/08/24 02:02:20;;;;;;;12.32;6.32;;;;;;;;;;5057595;28;20126;-71
2021/08/24 02:04:51;;;;;;;15.38;5.90;;;;;;;;;;5060820;28;20404;-71
2021/08/24 02:07:19;;;;;;;9.63;6.32;;;;;;;;;;5056606;28;20040;-71
2021/08/24 02:09:47;;;;;;;8.95;5.97;;;;;;;;;;5061333;28;20079;-71
2021/08/24 02:12:16;;;;;;;13.90;6.65;;;;;;;;;;5047704;28;20114;-71
2021/08/24 02:14:42;;;;;;;11.27;5.72;;;;;;;;;;5052606;28;20101;-71
2021/08/24 02:17:12;;;;;;;17.45;7.05;;;;;;;;;;5061016;28;20487;-71
2021/08/24 02:19:40;;;;;;;11.88;5.85;;;;;;;;;;5059882;28;20048;-71
2021/08/24 02:22:12;;;;;;;9.05;5.68;;;;;;;;;;5042039;28;20071;-71
2021/08/24 02:24:41;;;;;;;11.40;5.70;;;;;;;;;;5057889;28;20071;-71
2021/08/24 02:27:09;;;;;;;14.52;6.30;;;;;;;;;;5038399;28;20094;-71
2021/08/24 02:29:36;;;;;;;11.32;5.53;;;;;;;;;;5060732;28;20048;-71
2021/08/24 02:32:05;;;;;;;12.75;6.18;;;;;;;;;;5059295;28;20071;-71
2021/08/24 02:34:36;;;;;;;12.68;5.35;;;;;;;;;;5040313;28;20066;-71
2021/08/24 02:37:14;;;;;;;11.65;4.97;;;;;;;;;;5053831;28;20060;-71
2021/08/24 02:39:50;;;;;;;11.20;5.45;;;;;;;;;;5057398;28;20137;-71
2021/08/24 02:42:18;;;;;;;14.85;5.30;;;;;;;;;;5058510;28;20151;-71
2021/08/24 02:44:50;;;;;;;10.98;5.00;;;;;;;;;;5058977;28;20528;-71
2021/08/24 02:47:17;;;;;;;9.13;4.93;;;;;;;;;;5057055;28;20041;-71
2021/08/24 02:49:43;;;;;;;9.93;4.95;;;;;;;;;;5058298;28;20048;-71
2021/08/24 02:52:10;;;;;;;9.52;5.32;;;;;;;;;;5036022;28;20041;-71
2021/08/24 02:54:39;;;;;;;10.85;5.22;;;;;;;;;;5048458;28;20056;-71
2021/08/24 02:57:06;;;;;;;10.52;5.30;;;;;;;;;;5059767;28;20131;-71
2021/08/24 02:59:32;;;;;;;13.05;4.93;;;;;;;;;;5057064;28;20422;-71
2021/08/24 03:01:59;;;;;;;12.40;4.93;;;;;;;;;;5056172;28;20458;-71
2021/08/24 03:04:26;;;;;;;13.05;5.72;;;;;;;;;;5049498;28;20531;-71
2021/08/24 03:06:54;;;;;;;9.80;5.03;;;;;;;;;;5038092;28;20052;-71
2021/08/24 03:09:22;;;;;;;11.93;5.40;;;;;;;;;;5058494;28;20056;-71
2021/08/24 03:11:55;;;;;;;9.57;5.53;;;;;;;;;;5053856;28;20497;-71
2021/08/24 03:14:26;;;;;;;10.10;4.97;;;;;;;;;;5062756;28;20048;-71
2021/08/24 03:16:55;;;;;;;15.95;4.75;;;;;;;;;;5029466;28;20131;-71
2021/08/24 03:19:25;;;;;;;13.85;5.25;;;;;;;;;;5050590;28;20440;-71
2021/08/24 03:21:51;;;;;;;13.13;5.07;;;;;;;;;;5063097;28;20427;-71
2021/08/24 03:24:18;;;;;;;10.30;5.15;;;;;;;;;;5043122;28;20075;-71
2021/08/24 03:26:46;;;;;;;12.80;5.10;;;;;;;;;;5053807;28;20756;-71
2021/08/24 03:29:14;;;;;;;12.88;5.03;;;;;;;;;;5059255;28;20067;-71
2021/08/24 03:31:40;;;;;;;11.80;5.43;;;;;;;;;;5040369;28;20113;-71
2021/08/24 03:34:07;;;;;;;11.85;5.85;;;;;;;;;;5058946;28;20048;-71
2021/08/24 03:36:34;;;;;;;14.18;5.03;;;;;;;;;;5057221;28;20095;-71
2021/08/24 03:39:00;;;;;;;14.65;5.88;;;;;;;;;;5053036;28;20071;-71
2021/08/24 03:41:26;;;;;;;12.98;5.32;;;;;;;;;;5032904;28;20056;-71
2021/08/24 03:43:53;;;;;;;13.23;5.43;;;;;;;;;;5057213;28;20045;-71
2021/08/24 03:46:19;;;;;;;11.60;5.32;;;;;;;;;;5074235;28;20476;-71
2021/08/24 03:48:45;;;;;;;9.98;5.15;;;;;;;;;;5061382;28;20040;-71
2021/08/24 03:51:11;;;;;;;9.82;5.70;;;;;;;;;;5057022;28;20080;-71
2021/08/24 03:53:37;;;;;;;12.65;5.57;;;;;;;;;;5039430;28;20048;-71
2021/08/24 03:56:06;;;;;;;9.93;5.32;;;;;;;;;;5053711;28;20048;-71
2021/08/24 03:58:32;;;;;;;16.88;5.95;;;;;;;;;;5036747;28;20097;-70
2021/08/24 04:00:58;;;;;;;10.35;5.43;;;;;;;;;;5039109;28;20087;-71
2021/08/24 04:03:24;;;;;;;10.18;5.55;;;;;;;;;;5042174;28;20142;-71
2021/08/24 04:05:57;;;;;;;9.10;5.40;;;;;;;;;;5060789;28;21033;-71
2021/08/24 04:08:24;;;;;;;9.38;5.63;;;;;;;;;;5054069;28;20205;-71
2021/08/24 04:10:50;;;;;;;9.32;5.45;;;;;;;;;;5053508;28;20052;-71
2021/08/24 04:13:16;;;;;;;13.30;5.35;;;;;;;;;;5038225;28;20053;-71
2021/08/24 04:15:42;;;;;;;9.82;5.15;;;;;;;;;;5053029;28;20098;-71
2021/08/24 04:18:08;;;;;;;7.85;5.05;;;;;;;;;;5057132;28;20041;-71
2021/08/24 04:20:35;;;;;;;12.75;5.60;;;;;;;;;;5061918;28;20250;-71
2021/08/24 04:23:01;;;;;;;10.18;6.18;;;;;;;;;;5058094;28;20064;-70
2021/08/24 04:25:27;;;;;;;10.52;5.30;;;;;;;;;;5056869;28;20106;-71
2021/08/24 04:27:53;;;;;;;12.45;6.22;;;;;;;;;;5043638;28;20055;-71
2021/08/24 04:30:19;;;;;;;12.02;6.68;;;;;;;;;;5038221;28;20148;-71
2021/08/24 04:32:47;;;;;;;8.68;5.78;;;;;;;;;;5054420;28;20093;-71
2021/08/24 04:35:14;;;;;;;10.13;5.13;;;;;;;;;;5054859;28;21609;-71
2021/08/24 04:37:40;;;;;;;8.07;4.55;;;;;;;;;;5066461;28;20057;-71
2021/08/24 04:40:07;;;;;;;8.48;5.22;;;;;;;;;;5048898;28;20053;-71
2021/08/24 04:42:33;;;;;;;10.02;4.43;;;;;;;;;;5052999;28;20048;-71
2021/08/24 04:45:00;;;;;;;20.40;4.93;;;;;;;;;;5048653;28;20040;-70
2021/08/24 04:47:26;;;;;;;8.55;5.03;;;;;;;;;;5050872;28;20059;-70
2021/08/24 04:49:52;;;;;;;9.85;4.88;;;;;;;;;;5057429;28;20154;-71
2021/08/24 04:52:18;;;;;;;10.55;4.60;;;;;;;;;;5059952;28;20048;-74
2021/08/24 04:54:45;;;;;;;11.30;5.53;;;;;;;;;;5045306;28;20079;-71
2021/08/24 04:57:11;;;;;;;11.07;5.95;;;;;;;;;;5060559;28;20041;-71
2021/08/24 04:59:37;;;;;;;13.13;5.93;;;;;;;;;;5058841;28;20076;-70
2021/08/24 05:02:03;;;;;;;12.02;5.90;;;;;;;;;;5052291;28;20119;-70
2021/08/24 05:04:30;;;;;;;8.60;5.70;;;;;;;;;;5056207;28;20150;-70
2021/08/24 05:06:56;;;;;;;9.52;5.55;;;;;;;;;;5050640;28;20391;-71
2021/08/24 05:09:22;;;;;;;8.05;4.93;;;;;;;;;;5044055;28;20064;-71
2021/08/24 05:11:48;;;;;;;9.63;6.03;;;;;;;;;;5054480;28;20048;-71
2021/08/24 05:14:15;;;;;;;14.10;7.20;;;;;;;;;;5050742;28;20053;-71
2021/08/24 05:16:41;;;;;;;10.98;6.90;;;;;;;;;;5060941;28;20150;-71
2021/08/24 05:19:07;;;;;;;8.75;5.70;;;;;;;;;;5044665;28;20045;-71
2021/08/24 05:21:34;;;;;;;10.35;5.53;;;;;;;;;;5060690;28;20124;-71
2021/08/24 05:24:00;;;;;;;12.65;6.68;;;;;;;;;;5041528;28;20049;-71
2021/08/24 05:26:27;;;;;;;11.88;7.00;;;;;;;;;;5066053;28;20052;-71
2021/08/24 05:28:53;;;;;;;13.45;6.68;;;;;;;;;;5067004;28;20066;-71
2021/08/24 05:31:19;;;;;;;9.73;6.85;;;;;;;;;;5078310;28;20049;-71
2021/08/24 05:33:46;;;;;;;10.82;6.85;;;;;;;;;;5063957;28;20044;-71
2021/08/24 05:36:12;;;;;;;12.75;7.15;;;;;;;;;;5047809;28;20124;-71
2021/08/24 05:38:39;;;;;;;14.13;6.75;;;;;;;;;;5052482;28;20045;-72
2021/08/24 05:41:06;;;;;;;14.05;6.90;;;;;;;;;;5032807;28;20056;-72
2021/08/24 05:43:33;;;;;;;9.95;6.80;;;;;;;;;;5056498;28;20040;-72
2021/08/24 05:46:02;;;;;;;12.05;7.28;;;;;;;;;;5040082;28;20037;-72
2021/08/24 05:48:28;;;;;;;10.15;6.72;;;;;;;;;;5049671;28;20087;-72
2021/08/24 05:50:55;;;;;;;10.68;6.93;;;;;;;;;;5055186;28;20041;-72
2021/08/24 05:53:22;;;;;;;14.07;8.20;;;;;;;;;;5042561;28;20049;-73
2021/08/24 05:55:48;;;;;;;16.23;8.02;;;;;;;;;;5057673;28;20455;-72
2021/08/24 05:58:14;;;;;;;13.88;7.57;;;;;;;;;;5058519;28;20049;-72
2021/08/24 06:00:41;;;;;;;16.90;8.20;;;;;;;;;;5054591;28;20151;-71
2021/08/24 06:03:07;;;;;;;10.93;7.38;;;;;;;;;;5053396;28;20052;-71
2021/08/24 06:05:37;;;;;;;14.68;7.63;;;;;;;;;;5057852;28;20049;-71
2021/08/24 06:08:03;;;;;;;13.20;7.70;;;;;;;;;;5054574;28;20119;-71
2021/08/24 06:10:29;;;;;;;11.15;7.90;;;;;;;;;;5036529;28;20369;-71
2021/08/24 06:12:56;;;;;;;15.77;8.50;;;;;;;;;;5049801;28;20043;-71
2021/08/24 06:15:22;;;;;;;14.25;7.72;;;;;;;;;;5054484;28;20142;-71
2021/08/24 06:17:48;;;;;;;11.48;7.78;;;;;;;;;;5051624;28;20072;-71
2021/08/24 06:20:15;;;;;;;12.75;7.88;;;;;;;;;;5053176;28;20040;-71
2021/08/24 06:22:41;;;;;;;18.00;7.88;;;;;;;;;;5054382;28;20050;-71
2021/08/24 06:25:08;;;;;;;12.95;7.07;;;;;;;;;;5039627;28;20056;-71
2021/08/24 06:27:34;;;;;;;14.25;7.43;;;;;;;;;;5062507;28;20087;-71
2021/08/24 06:30:00;;;;;;;11.73;7.45;;;;;;;;;;5058086;28;20530;-71
2021/08/24 06:32:35;;;;;;;14.05;7.88;;;;;;;;;;5054981;28;20048;-71
2021/08/24 06:35:01;;;;;;;11.63;6.43;;;;;;;;;;5048880;28;20083;-71
2021/08/24 06:37:27;;;;;;;15.10;6.72;;;;;;;;;;5055502;28;20080;-71
2021/08/24 06:39:54;;;;;;;13.30;5.95;;;;;;;;;;5067092;28;20384;-71
2021/08/24 06:42:20;;;;;;;10.75;6.10;;;;;;;;;;5054396;28;20044;-73
2021/08/24 06:44:47;;;;;;;11.93;5.85;;;;;;;;;;5056075;28;20076;-73
2021/08/24 06:47:13;;;;;;;11.68;5.35;;;;;;;;;;5058223;28;20044;-73
2021/08/24 06:49:40;;;;;;;9.32;4.75;;;;;;;;;;5042723;28;20103;-73
2021/08/24 06:52:06;;;;;;;8.13;4.53;;;;;;;;;;5054526;28;20113;-73
2021/08/24 06:54:33;;;;;;;9.43;4.68;;;;;;;;;;5037797;28;20095;-73
2021/08/24 06:56:59;;;;;;;9.77;4.85;;;;;;;;;;5052571;28;20409;-73
2021/08/24 06:59:26;;;;;;;10.70;4.25;;;;;;;;;;5056805;28;20102;-73
2021/08/24 07:01:52;;;;;;;7.30;3.70;;;;;;;;;;5036748;28;20480;-73
2021/08/24 07:04:18;;;;;;;8.93;3.53;;;;;;;;;;5055521;28;20052;-72
2021/08/24 07:06:48;;;;;;;13.38;3.05;;;;;;;;;;5037869;28;20127;-72
2021/08/24 07:09:14;;;;;;;8.32;2.90;;;;;;;;;;5067168;28;20071;-72
2021/08/24 07:11:41;;;;;;;8.90;3.05;;;;;;;;;;5048795;28;20044;-72
2021/08/24 07:14:07;;;;;;;11.50;3.30;;;;;;;;;;5057568;28;20095;-72
2021/08/24 07:16:33;;;;;;;8.15;2.88;;;;;;;;;;5053493;28;20065;-72
2021/08/24 07:19:00;;;;;;;6.90;2.83;;;;;;;;;;5056463;28;20047;-72
2021/08/24 07:21:27;;;;;;;9.27;2.50;;;;;;;;;;5052671;28;20364;-72
2021/08/24 07:23:54;;;;;;;12.32;3.15;;;;;;;;;;5052798;28;20055;-73
2021/08/24 07:26:20;;;;;;;6.97;2.67;;;;;;;;;;5040580;28;20044;-73
2021/08/24 07:28:47;;;;;;;9.90;2.60;;;;;;;;;;5058131;28;20143;-72
2021/08/24 07:31:14;;;;;;;6.88;2.60;;;;;;;;;;5039498;28;20560;-72
2021/08/24 07:33:40;;;;;;;7.10;2.58;;;;;;;;;;5054947;28;20044;-73
2021/08/24 07:36:06;;;;;;;5.30;2.25;;;;;;;;;;5055025;28;20087;-73
2021/08/24 07:38:32;;;;;;;4.72;2.10;;;;;;;;;;5072479;28;20056;-72
2021/08/24 07:40:59;;;;;;;5.90;2.40;;;;;;;;;;5055861;28;20033;-72
2021/08/24 07:43:25;;;;;;;5.95;2.30;;;;;;;;;;5053869;28;20507;-73
2021/08/24 07:45:51;;;;;;;5.15;2.20;;;;;;;;;;5051795;28;20128;-72
2021/08/24 07:48:17;;;;;;;8.30;2.33;;;;;;;;;;5033256;28;20167;-72
2021/08/24 07:50:44;;;;;;;5.95;2.38;;;;;;;;;;5037315;28;20048;-72
2021/08/24 07:53:10;;;;;;;6.15;2.28;;;;;;;;;;5039191;28;20051;-72
2021/08/24 07:55:36;;;;;;;4.65;2.13;;;;;;;;;;5041333;28;20047;-72
2021/08/24 07:58:03;;;;;;;11.25;2.30;;;;;;;;;;5040801;28;20048;-73
2021/08/24 08:00:30;;;;;;;11.95;2.60;;;;;;;;;;5076149;28;20086;-75
2021/08/24 08:02:56;;;;;;;8.93;2.45;;;;;;;;;;5061261;28;20090;-74
2021/08/24 08:05:22;;;;;;;5.97;2.38;;;;;;;;;;5063007;28;20045;-75
2021/08/24 08:07:49;;;;;;;5.72;2.20;;;;;;;;;;5050131;28;20366;-74
2021/08/24 08:10:15;;;;;;;6.00;1.70;;;;;;;;;;5054909;28;20095;-75
2021/08/24 08:12:41;;;;;;;9.15;2.10;;;;;;;;;;5057482;28;20063;-75
2021/08/24 08:15:10;;;;;;;8.57;2.20;;;;;;;;;;5058247;28;20044;-74
2021/08/24 08:17:36;;;;;;;5.45;2.30;;;;;;;;;;5053521;28;20049;-74
2021/08/24 08:20:03;;;;;;;6.18;1.90;;;;;;;;;;5051913;28;20037;-74
2021/08/24 08:22:29;;;;;;;6.72;2.25;;;;;;;;;;5036088;28;20064;-74
2021/08/24 08:24:55;;;;;;;5.40;2.10;;;;;;;;;;5052836;28;20128;-74
2021/08/24 08:27:22;;;;;;;4.22;1.77;;;;;;;;;;5052866;28;20459;-74
2021/08/24 08:29:48;;;;;;;5.97;2.20;;;;;;;;;;5067490;28;20132;-73
2021/08/24 08:32:15;;;;;;;5.65;1.92;;;;;;;;;;5066772;28;20081;-73
2021/08/24 08:34:42;;;;;;;10.93;2.58;;;;;;;;;;5067942;28;20093;-73
2021/08/24 08:37:08;;;;;;;5.05;2.08;;;;;;;;;;5062606;28;20071;-73
2021/08/24 08:39:34;;;;;;;4.88;1.73;;;;;;;;;;5063465;28;20049;-73
2021/08/24 08:42:01;;;;;;;3.83;1.48;;;;;;;;;;5059481;28;20032;-72
2021/08/24 08:44:27;;;;;;;5.13;1.65;;;;;;;;;;5059870;28;20040;-73
2021/08/24 08:46:53;;;;;;;4.65;1.63;;;;;;;;;;5047547;28;20045;-73
2021/08/24 08:49:28;;;;;;;5.90;1.70;;;;;;;;;;5040367;28;20107;-73
2021/08/24 08:52:05;;;;;;;5.63;1.63;;;;;;;;;;5064455;28;20491;-73
2021/08/24 08:54:38;;;;;;;4.60;1.67;;;;;;;;;;5062849;28;20501;-73
2021/08/24 08:57:09;;;;;;;3.75;1.80;;;;;;;;;;5063447;28;20455;-73
2021/08/24 08:59:41;;;;;;;5.63;2.03;;;;;;;;;;5059530;28;20047;-73
2021/08/24 09:02:08;;;;;;;8.55;2.08;;;;;;;;;;5040814;28;20036;-73
2021/08/24 09:04:38;;;;;;;5.75;1.70;;;;;;;;;;5066494;28;20098;-71
2021/08/24 09:07:08;;;;;;;5.18;2.20;;;;;;;;;;5051386;28;20047;-71
2021/08/24 09:09:35;;;;;;;5.80;2.42;;;;;;;;;;5060768;28;20037;-72
2021/08/24 09:12:01;;;;;;;4.60;1.88;;;;;;;;;;5063807;28;20089;-71
2021/08/24 09:14:35;;;;;;;4.45;1.73;;;;;;;;;;5063845;28;20045;-72
2021/08/24 09:17:04;;;;;;;6.25;2.17;;;;;;;;;;5057235;28;20533;-71
2021/08/24 09:19:36;;;;;;;9.10;1.95;;;;;;;;;;5062719;28;20382;-71
2021/08/24 09:22:05;;;;;;;4.65;1.88;;;;;;;;;;5063177;28;20130;-72
2021/08/24 09:24:31;;;;;;;4.63;1.80;;;;;;;;;;5066783;28;20048;-71
2021/08/24 09:27:02;;;;;;;6.05;1.92;;;;;;;;;;5067889;28;20044;-72
2021/08/24 09:29:33;;;;;;;4.82;1.45;;;;;;;;;;5058801;28;20127;-71
2021/08/24 09:32:00;;;;;;;6.00;1.40;;;;;;;;;;5061041;28;20100;-71
2021/08/24 09:34:27;;;;;;;3.58;1.42;;;;;;;;;;5066438;28;20179;-71
2021/08/24 09:36:53;;;;;;;4.68;1.95;;;;;;;;;;5068528;28;20174;-72
2021/08/24 09:39:40;;;;;;;4.68;2.00;;;;;;;;;;5055043;28;20061;-71
2021/08/24 09:42:07;;;;;;;4.57;1.60;;;;;;;;;;5049805;28;20044;-71
2021/08/24 09:44:34;;;;;;;4.65;1.67;;;;;;;;;;5064857;28;20045;-72
2021/08/24 09:47:16;;;;;;;4.20;1.48;;;;;;;;;;5048801;28;20040;-71
2021/08/24 09:49:43;;;;;;;4.00;1.77;;;;;;;;;;5065474;28;20064;-71
2021/08/24 09:52:11;;;;;;;6.38;1.60;;;;;;;;;;5059155;28;20033;-71
2021/08/24 09:54:41;;;;;;;3.05;1.40;;;;;;;;;;5067368;28;20037;-72
2021/08/24 09:57:17;;;;;;;3.83;1.70;;;;;;;;;;5071714;28;20434;-72
2021/08/24 09:59:47;;;;;;;7.10;2.03;;;;;;;;;;5062433;28;20114;-72
2021/08/24 10:02:34;;;;;;;6.72;1.20;;;;;;;;;;5050770;28;20539;-71
2021/08/24 10:05:01;;;;;;;3.90;1.38;;;;;;;;;;5069613;28;20063;-72
2021/08/24 10:07:33;;;;;;;4.45;1.42;;;;;;;;;;5058795;28;20175;-72
2021/08/24 10:10:00;;;;;;;3.97;1.30;;;;;;;;;;5068363;28;20056;-72
2021/08/24 10:12:28;;;;;;;3.30;1.20;;;;;;;;;;5070426;28;20048;-72
2021/08/24 10:14:56;;;;;;;4.90;1.33;;;;;;;;;;5051408;28;20052;-72
2021/08/24 10:17:34;;;;;;;5.32;1.50;;;;;;;;;;5046405;28;20081;-72
2021/08/24 10:20:01;;;;;;;4.15;1.45;;;;;;;;;;5067127;28;20400;-72
2021/08/24 10:22:30;;;;;;;4.60;1.42;;;;;;;;;;5074499;28;20115;-72
2021/08/24 10:24:59;;;;;;;4.03;1.42;;;;;;;;;;5060622;28;20341;-72
2021/08/24 10:27:29;;;;;;;4.43;1.08;;;;;;;;;;5057034;28;20160;-72
2021/08/24 10:29:57;;;;;;;9.25;2.03;;;;;;;;;;5070955;28;20068;-72
2021/08/24 10:32:27;;;;;;;4.00;1.70;;;;;;;;;;5053015;28;20041;-72
2021/08/24 10:34:54;;;;;;;6.05;1.30;;;;;;;;;;5062049;28;20080;-72
2021/08/24 10:37:24;;;;;;;4.15;1.40;;;;;;;;;;5064828;28;20057;-72
2021/08/24 10:39:52;;;;;;;3.83;1.35;;;;;;;;;;5059081;28;20383;-72
2021/08/24 10:42:22;;;;;;;4.63;1.50;;;;;;;;;;5070891;28;20040;-72
2021/08/24 10:44:50;;;;;;;4.30;1.55;;;;;;;;;;5066860;28;20060;-72
2021/08/24 10:47:25;;;;;;;5.78;1.40;;;;;;;;;;5064104;28;20036;-72
2021/08/24 10:49:53;;;;;;;6.90;1.92;;;;;;;;;;5070888;28;20387;-72
2021/08/24 10:52:19;;;;;;;4.65;1.58;;;;;;;;;;5063188;28;20447;-72
2021/08/24 10:54:55;;;;;;;4.88;1.50;;;;;;;;;;5064865;28;20044;-72
2021/08/24 10:57:25;;;;;;;5.28;1.83;;;;;;;;;;5049092;28;20101;-72
2021/08/24 11:00:04;;;;;;;3.80;1.45;;;;;;;;;;5071131;28;20044;-72
2021/08/24 11:02:42;;;;;;;4.28;1.80;;;;;;;;;;5071218;28;20521;-72
2021/08/24 11:05:16;;;;;;;5.20;1.50;;;;;;;;;;5050542;28;20090;-72
2021/08/24 11:08:01;;;;;;;7.18;1.83;;;;;;;;;;5063944;28;20067;-72
2021/08/24 11:10:32;;;;;;;5.80;1.73;;;;;;;;;;5067760;28;20083;-72
2021/08/24 11:13:04;;;;;;;5.72;1.73;;;;;;;;;;5062575;28;20097;-72
2021/08/24 11:15:41;;;;;;;5.97;2.03;;;;;;;;;;5053423;28;20097;-72
2021/08/24 11:18:23;;;;;;;6.05;1.63;;;;;;;;;;5058911;28;20044;-72
2021/08/24 11:20:56;;;;;;;6.35;1.73;;;;;;;;;;5059947;28;20392;-72
2021/08/24 11:23:40;;;;;;;5.75;1.98;;;;;;;;;;5069182;28;20056;-72
2021/08/24 11:26:15;;;;;;;7.40;1.88;;;;;;;;;;5069942;28;20063;-72
2021/08/24 11:28:49;;;;;;;5.97;1.80;;;;;;;;;;5063454;28;20479;-73
2021/08/24 11:31:27;;;;;;;6.53;1.77;;;;;;;;;;5038741;28;20045;-73
2021/08/24 11:33:56;;;;;;;5.55;1.70;;;;;;;;;;5078325;28;20487;-73
2021/08/24 11:36:32;;;;;;;9.73;1.92;;;;;;;;;;5068367;28;20079;-73
2021/08/24 11:39:03;;;;;;;6.35;1.60;;;;;;;;;;5063396;28;20578;-73
2021/08/24 11:41:29;;;;;;;7.15;2.35;;;;;;;;;;5066454;28;20174;-73
2021/08/24 11:43:56;;;;;;;4.32;1.92;;;;;;;;;;5049960;28;20433;-73
2021/08/24 11:46:26;;;;;;;4.90;1.60;;;;;;;;;;5047977;28;20064;-73
2021/08/24 11:48:59;;;;;;;6.00;1.60;;;;;;;;;;5049387;28;20433;-73
2021/08/24 11:51:28;;;;;;;5.50;1.38;;;;;;;;;;5050351;28;20047;-73
2021/08/24 11:53:59;;;;;;;4.47;1.60;;;;;;;;;;5069077;28;20076;-73
2021/08/24 11:56:32;;;;;;;4.95;1.63;;;;;;;;;;5057003;28;20055;-73
2021/08/24 11:59:00;;;;;;;11.02;1.83;;;;;;;;;;5043406;28;20052;-73
2021/08/24 12:01:27;;;;;;;5.82;1.50;;;;;;;;;;5069345;28;20131;-73
2021/08/24 12:03:54;;;;;;;4.70;1.77;;;;;;;;;;5064569;28;20101;-74
2021/08/24 12:06:23;;;;;;;4.47;1.60;;;;;;;;;;5043283;28;20049;-73
2021/08/24 12:08:52;;;;;;;4.47;1.63;;;;;;;;;;5069494;28;20127;-73
2021/08/24 12:11:20;;;;;;;7.00;1.60;;;;;;;;;;5049371;28;20040;-73
2021/08/24 12:13:48;;;;;;;4.18;1.50;;;;;;;;;;5050908;28;20488;-73
2021/08/24 12:16:20;;;;;;;5.28;1.80;;;;;;;;;;5051498;28;20045;-74
2021/08/24 12:18:48;;;;;;;5.05;1.33;;;;;;;;;;5064861;28;20045;-73
2021/08/24 12:21:28;;;;;;;4.78;1.42;;;;;;;;;;5044009;28;20154;-74
2021/08/24 12:23:54;;;;;;;2.88;1.55;;;;;;;;;;5068577;28;20036;-73
2021/08/24 12:26:25;;;;;;;5.20;2.08;;;;;;;;;;5069898;28;20384;-74
2021/08/24 12:28:53;;;;;;;4.60;1.60;;;;;;;;;;5062689;28;20087;-73
2021/08/24 12:31:23;;;;;;;6.40;1.60;;;;;;;;;;5065440;28;20049;-74
2021/08/24 12:33:49;;;;;;;7.22;1.58;;;;;;;;;;5069356;28;20044;-73
2021/08/24 12:36:22;;;;;;;6.55;1.65;;;;;;;;;;5063803;28;20522;-73
2021/08/24 12:38:50;;;;;;;6.75;2.05;;;;;;;;;;5056570;28;20072;-73
2021/08/24 12:41:32;;;;;;;5.38;1.70;;;;;;;;;;5068127;28;20059;-74
2021/08/24 12:44:23;;;;;;;6.72;1.50;;;;;;;;;;5068759;28;20048;-73
2021/08/24 12:46:50;;;;;;;6.75;1.90;;;;;;;;;;5033182;28;20048;-73
2021/08/24 12:49:17;;;;;;;4.95;1.63;;;;;;;;;;5061909;28;20044;-74
2021/08/24 12:51:45;;;;;;;4.13;1.55;;;;;;;;;;5060326;28;20032;-73
2021/08/24 12:54:12;;;;;;;4.55;1.40;;;;;;;;;;5051582;28;20056;-74
2021/08/24 12:56:41;;;;;;;5.03;1.60;;;;;;;;;;5068532;28;20043;-74
2021/08/24 12:59:08;;;;;;;5.00;1.60;;;;;;;;;;5051767;28;20186;-74
2021/08/24 13:01:38;;;;;;;6.32;1.60;;;;;;;;;;5060042;28;20029;-74
2021/08/24 13:04:21;;;;;;;8.27;2.00;;;;;;;;;;5068284;28;20157;-74
2021/08/24 13:06:48;;;;;;;6.10;1.83;;;;;;;;;;5068797;28;20498;-74
2021/08/24 13:09:20;;;;;;;6.68;1.88;;;;;;;;;;5068860;28;20509;-74
2021/08/24 13:12:07;;;;;;;5.45;1.70;;;;;;;;;;5068404;28;20059;-74
2021/08/24 13:14:41;;;;;;;5.05;1.40;;;;;;;;;;5061954;28;20151;-74
2021/08/24 13:17:10;;;;;;;4.75;1.52;;;;;;;;;;5062868;28;20059;-74
2021/08/24 13:19:37;;;;;;;4.13;1.33;;;;;;;;;;5068480;28;20044;-73
2021/08/24 13:22:06;;;;;;;7.45;1.73;;;;;;;;;;5050837;28;20040;-74
2021/08/24 13:24:36;;;;;;;5.63;1.77;;;;;;;;;;5060030;28;20143;-74
2021/08/24 13:27:07;;;;;;;5.72;1.75;;;;;;;;;;5068561;28;20052;-74
2021/08/24 13:29:39;;;;;;;3.97;1.60;;;;;;;;;;5056462;28;20044;-74
2021/08/24 13:32:34;;;;;;;5.47;1.70;;;;;;;;;;5070779;28;20418;-74
2021/08/24 13:35:01;;;;;;;5.07;1.30;;;;;;;;;;5053917;28;20084;-74
2021/08/24 13:37:32;;;;;;;6.30;1.85;;;;;;;;;;5072416;28;20045;-74
2021/08/24 13:40:03;;;;;;;4.93;1.42;;;;;;;;;;5051266;28;20509;-74
2021/08/24 13:42:30;;;;;;;5.70;1.60;;;;;;;;;;5068686;28;20040;-74
2021/08/24 13:44:56;;;;;;;7.80;1.95;;;;;;;;;;5053848;28;20054;-74
2021/08/24 13:47:23;;;;;;;4.93;1.55;;;;;;;;;;5067883;28;20044;-75
2021/08/24 13:49:51;;;;;;;4.88;1.70;;;;;;;;;;5072357;28;20567;-74
2021/08/24 13:52:25;;;;;;;4.43;1.83;;;;;;;;;;5065612;28;20077;-75
2021/08/24 13:54:52;;;;;;;4.97;1.58;;;;;;;;;;5069019;28;20123;-75
2021/08/24 13:57:23;;;;;;;5.22;1.50;;;;;;;;;;5070942;28;20091;-74
2021/08/24 13:59:50;;;;;;;5.45;1.70;;;;;;;;;;5071269;28;20110;-74
2021/08/24 14:02:17;;;;;;;3.33;1.77;;;;;;;;;;5054324;28;20436;-74
2021/08/24 14:04:44;;;;;;;3.78;1.42;;;;;;;;;;5067168;28;20039;-74
2021/08/24 14:07:15;;;;;;;3.95;1.52;;;;;;;;;;5070112;28;20088;-74
2021/08/24 14:09:44;;;;;;;6.07;2.17;;;;;;;;;;5049420;28;20060;-74
2021/08/24 14:12:18;;;;;;;4.72;1.70;;;;;;;;;;5059871;28;20045;-74
2021/08/24 14:15:02;;;;;;;5.38;1.63;;;;;;;;;;5059190;28;20087;-74
2021/08/24 14:17:40;;;;;;;5.93;1.65;;;;;;;;;;5072045;28;20121;-74
2021/08/24 14:20:15;;;;;;;6.60;1.60;;;;;;;;;;5053546;28;20453;-74
2021/08/24 14:22:42;;;;;;;4.90;1.63;;;;;;;;;;5071086;28;20033;-75
2021/08/24 14:25:09;;;;;;;4.68;1.80;;;;;;;;;;5070613;28;20384;-75
2021/08/24 14:27:35;;;;;;;4.50;1.60;;;;;;;;;;5065634;28;20044;-74
2021/08/24 14:30:02;;;;;;;8.02;1.90;;;;;;;;;;5066912;28;20086;-75
2021/08/24 14:32:30;;;;;;;4.85;1.65;;;;;;;;;;5068244;28;20060;-75
2021/08/24 14:34:56;;;;;;;5.70;1.90;;;;;;;;;;5044650;28;20069;-75
2021/08/24 14:37:24;;;;;;;7.55;1.90;;;;;;;;;;5046155;28;20056;-75
2021/08/24 14:39:53;;;;;;;3.85;1.63;;;;;;;;;;5049041;28;20495;-75
2021/08/24 14:42:27;;;;;;;4.22;1.45;;;;;;;;;;5065282;28;20037;-76
2021/08/24 14:44:55;;;;;;;8.55;1.95;;;;;;;;;;5065336;28;20049;-76
2021/08/24 14:47:26;;;;;;;5.97;1.90;;;;;;;;;;5068231;28;20089;-76